Kalam Weather



Kalam's Current Weather

Temprature 14.43o scattered clouds

scattered clouds

Rain: 0 %

Min Temprature14.43o
Max Temprature14.43o
Humidity54
Wind Speed1.43 m/h
Sun Rise04:59:31
Sun Set19:13:44
Current Time: 24-May-2022 07:40:36
Lat/Lon: 35.4816, 72.5848




Kalam's Geo Location



Kalam's Weather Forecast

Time Overall Temp Min Temp Max Temp Humidity Wind Speed Rain
24-May-2022 (Tue)
08:00:00 scattered clouds 14.430 14.430 14.430 54 1.43 m/h 0 %
11:00:00 few clouds 15.550 15.550 17.790 51 3.01 m/h 0 %
14:00:00 light rain 17.910 17.910 19.650 47 3.63 m/h 33 %
17:00:00 light rain 18.450 18.450 18.450 52 3.09 m/h 47 %
20:00:00 scattered clouds 12.670 12.670 12.670 82 1.09 m/h 0 %
23:00:00 few clouds 12.250 12.250 12.250 74 2.26 m/h 0 %
25-May-2022 (Wed)
02:00:00 clear sky 11.750 11.750 11.750 58 2.24 m/h 0 %
05:00:00 clear sky 11.420 11.420 11.420 51 3.03 m/h 0 %
08:00:00 clear sky 19.430 19.430 19.430 31 0.92 m/h 0 %
11:00:00 clear sky 23.320 23.320 23.320 25 2.66 m/h 0 %
14:00:00 few clouds 24.740 24.740 24.740 29 3.88 m/h 0 %
17:00:00 light rain 20.760 20.760 20.760 53 3.22 m/h 41 %
20:00:00 light rain 15.480 15.480 15.480 77 1.42 m/h 34 %
23:00:00 clear sky 14.880 14.880 14.880 72 0.98 m/h 0 %
26-May-2022 (Thu)
02:00:00 clear sky 14.480 14.480 14.480 57 2.26 m/h 0 %
05:00:00 clear sky 13.780 13.780 13.780 48 3.18 m/h 0 %
08:00:00 clear sky 22.030 22.030 22.030 30 1.72 m/h 0 %
11:00:00 clear sky 25.640 25.640 25.640 19 0.92 m/h 0 %
14:00:00 scattered clouds 26.430 26.430 26.430 22 2.64 m/h 0 %
17:00:00 light rain 21.690 21.690 21.690 48 3.34 m/h 32 %
20:00:00 few clouds 17.210 17.210 17.210 67 0.86 m/h 0 %
23:00:00 clear sky 16.350 16.350 16.350 67 1.23 m/h 0 %
27-May-2022 (Fri)
02:00:00 clear sky 15.510 15.510 15.510 59 1.28 m/h 0 %
05:00:00 clear sky 14.750 14.750 14.750 47 1.63 m/h 0 %
08:00:00 clear sky 21.870 21.870 21.870 32 0.83 m/h 0 %
11:00:00 clear sky 25.530 25.530 25.530 25 3.34 m/h 0 %
14:00:00 broken clouds 25.380 25.380 25.380 28 3.3 m/h 0 %
17:00:00 light rain 22.170 22.170 22.170 41 2.11 m/h 16 %
20:00:00 broken clouds 17.600 17.600 17.600 61 1.03 m/h 0 %
23:00:00 light rain 16.780 16.780 16.780 61 2.59 m/h 20 %
28-May-2022 (Sat)
02:00:00 scattered clouds 15.650 15.650 15.650 62 2.29 m/h 0 %
05:00:00 scattered clouds 14.730 14.730 14.730 60 2.35 m/h 0 %
08:00:00 light rain 20.550 20.550 20.550 46 1.14 m/h 17 %
11:00:00 light rain 19.770 19.770 19.770 53 1.65 m/h 44 %
14:00:00 light rain 19.740 19.740 19.740 60 3.75 m/h 146 %
17:00:00 light rain 22.410 22.410 22.410 41 0.97 m/h 103 %
20:00:00 light rain 15.650 15.650 15.650 78 0.6 m/h 81 %
23:00:00 broken clouds 15.620 15.620 15.620 68 1.36 m/h 0 %
29-May-2022 (Sun)
02:00:00 broken clouds 14.600 14.600 14.600 67 1.31 m/h 0 %
05:00:00 light rain 15.050 15.050 15.050 69 1.11 m/h 21 %

Famous Cities (61)